createdAt,value
2023-05-07T00:00:34.401Z,46.200001
2023-05-07T00:01:42.951Z,44.400002
2023-05-07T00:02:51.382Z,44.400002
2023-05-07T00:03:59.748Z,44.400002
2023-05-07T00:05:08.268Z,44.900002
2023-05-07T00:06:16.515Z,44.900002
2023-05-07T00:07:24.858Z,44.900002
2023-05-07T00:08:33.399Z,43.599998
2023-05-07T00:09:41.738Z,43.599998
2023-05-07T00:10:50.073Z,43.599998
2023-05-07T00:11:58.640Z,46.400002
2023-05-07T00:13:07.026Z,46.400002
2023-05-07T00:14:15.295Z,46.400002
2023-05-07T00:15:24.017Z,45.099998
2023-05-07T00:16:32.233Z,45.099998
2023-05-07T00:17:40.546Z,45.099998
2023-05-07T00:18:49.080Z,44.5
2023-05-07T00:19:57.413Z,44.5
2023-05-07T00:21:05.758Z,44.5
2023-05-07T00:22:14.295Z,46.099998
2023-05-07T00:23:22.619Z,46.099998
2023-05-07T00:24:30.964Z,46.099998
2023-05-07T00:25:39.494Z,46.900002
2023-05-07T00:26:47.845Z,46.900002
2023-05-07T00:27:56.188Z,46.900002
2023-05-07T00:29:04.732Z,42.200001
2023-05-07T00:30:13.156Z,42.200001
2023-05-07T00:31:21.601Z,42.200001
2023-05-07T00:32:29.972Z,45.200001
2023-05-07T00:33:38.285Z,45.200001
2023-05-07T00:34:46.615Z,45.200001
2023-05-07T00:35:55.165Z,44.5
2023-05-07T00:37:05.341Z,44.5
2023-05-07T00:38:12.079Z,44.5
2023-05-07T00:39:20.590Z,38.599998
2023-05-07T00:40:28.950Z,38.599998
2023-05-07T00:41:37.296Z,38.599998
2023-05-07T00:42:45.833Z,43.599998
2023-05-07T00:43:54.178Z,43.599998
2023-05-07T00:45:02.509Z,43.599998
2023-05-07T00:46:11.076Z,39.900002
2023-05-07T00:47:19.462Z,39.900002
2023-05-07T00:48:27.704Z,39.900002
2023-05-07T00:49:36.215Z,41.200001
2023-05-07T00:50:44.571Z,41.200001
2023-05-07T00:51:52.907Z,41.200001
2023-05-07T00:53:01.472Z,37.900002
2023-05-07T00:54:09.792Z,37.900002
2023-05-07T00:55:18.133Z,37.900002
2023-05-07T00:56:26.684Z,42.5
2023-05-07T00:57:35.021Z,42.5
2023-05-07T00:58:43.397Z,42.5
2023-05-07T00:59:51.948Z,40.299999
2023-05-07T01:01:00.290Z,40.299999
2023-05-07T01:02:08.584Z,40.299999
2023-05-07T01:03:17.221Z,43.299999
2023-05-07T01:04:25.456Z,43.299999
2023-05-07T01:05:33.799Z,43.299999
2023-05-07T01:06:42.339Z,43.700001
2023-05-07T01:07:50.673Z,43.700001
2023-05-07T01:08:59.008Z,43.700001
2023-05-07T01:10:07.558Z,41.299999
2023-05-07T01:11:15.880Z,41.299999
2023-05-07T01:12:24.214Z,41.299999
2023-05-07T01:13:32.763Z,40.200001
2023-05-07T01:14:41.095Z,40.200001
2023-05-07T01:15:49.436Z,40.200001
2023-05-07T01:16:58.013Z,40
2023-05-07T01:18:06.407Z,40
2023-05-07T01:19:14.664Z,40
2023-05-07T01:20:23.185Z,41
2023-05-07T01:21:31.529Z,41
2023-05-07T01:22:39.866Z,41
2023-05-07T01:23:48.405Z,38.099998
2023-05-07T01:24:56.732Z,38.099998
2023-05-07T01:26:05.059Z,38.099998
2023-05-07T01:27:13.593Z,39.400002
2023-05-07T01:28:21.956Z,39.400002
2023-05-07T01:29:30.308Z,39.400002
2023-05-07T01:30:38.861Z,39.700001
2023-05-07T01:31:47.206Z,39.700001
2023-05-07T01:32:55.559Z,39.700001
2023-05-07T01:34:04.069Z,35.799999
2023-05-07T01:35:12.431Z,35.799999
2023-05-07T01:36:20.764Z,35.799999
2023-05-07T01:37:29.288Z,39.200001
2023-05-07T01:38:37.623Z,39.200001
2023-05-07T01:39:45.947Z,39.200001
2023-05-07T01:40:54.495Z,38.799999
2023-05-07T01:42:02.831Z,38.799999
2023-05-07T01:43:11.140Z,38.799999
2023-05-07T01:44:19.674Z,38
2023-05-07T01:45:28.015Z,38
2023-05-07T01:46:36.405Z,38
2023-05-07T01:47:44.949Z,38
2023-05-07T01:48:53.895Z,38
2023-05-07T01:50:01.565Z,38
2023-05-07T01:51:10.222Z,37.400002
2023-05-07T01:52:18.466Z,37.400002
2023-05-07T01:53:26.790Z,37.400002
2023-05-07T01:54:35.326Z,35.599998
2023-05-07T01:55:43.692Z,35.599998
2023-05-07T01:56:51.992Z,35.599998
2023-05-07T01:58:00.557Z,39.200001
2023-05-07T01:59:08.879Z,39.200001
2023-05-07T02:00:17.215Z,39.200001
2023-05-07T02:01:25.792Z,38.200001
2023-05-07T02:02:34.121Z,38.200001
2023-05-07T02:03:42.506Z,38.200001
2023-05-07T02:04:50.950Z,36.700001
2023-05-07T02:05:59.643Z,36.700001
2023-05-07T02:07:08.085Z,36.700001
2023-05-07T02:08:16.498Z,40
2023-05-07T02:09:24.827Z,40
2023-05-07T02:10:33.155Z,40
2023-05-07T02:11:41.677Z,41.5
2023-05-07T02:12:50.008Z,41.5
2023-05-07T02:13:58.331Z,41.5
2023-05-07T02:15:06.883Z,45.5
2023-05-07T02:16:15.259Z,45.5
2023-05-07T02:17:23.566Z,45.5
2023-05-07T02:18:32.088Z,48.799999
2023-05-07T02:19:40.405Z,48.799999
2023-05-07T02:20:48.763Z,48.799999
2023-05-07T02:21:57.294Z,48
2023-05-07T02:23:05.761Z,48
2023-05-07T02:24:13.956Z,48
2023-05-07T02:25:22.473Z,46.200001
2023-05-07T02:26:30.812Z,46.200001
2023-05-07T02:27:39.139Z,46.200001
2023-05-07T02:28:47.694Z,47.599998
2023-05-07T02:29:56.031Z,47.599998
2023-05-07T02:31:04.373Z,47.599998
2023-05-07T02:32:12.930Z,47.700001
2023-05-07T02:33:21.246Z,47.700001
2023-05-07T02:34:29.567Z,47.700001
2023-05-07T02:35:38.106Z,51
2023-05-07T02:36:46.423Z,51
2023-05-07T02:37:54.771Z,51
2023-05-07T02:39:03.463Z,49.400002
2023-05-07T02:40:11.803Z,49.400002
2023-05-07T02:41:20.023Z,49.400002
2023-05-07T02:42:28.549Z,47.599998
2023-05-07T02:43:36.872Z,47.599998
2023-05-07T02:44:45.215Z,47.599998
2023-05-07T02:45:53.777Z,48.400002
2023-05-07T02:47:02.095Z,48.400002
2023-05-07T02:48:10.477Z,48.400002
2023-05-07T02:49:18.968Z,48
2023-05-07T02:50:27.262Z,48
2023-05-07T02:51:35.607Z,48
2023-05-07T02:52:44.141Z,46.700001
2023-05-07T02:53:52.472Z,46.700001
2023-05-07T02:55:00.893Z,46.700001
2023-05-07T02:56:09.353Z,50
2023-05-07T02:57:17.677Z,50
2023-05-07T02:58:26.018Z,50
2023-05-07T02:59:34.569Z,49.799999
2023-05-07T03:00:42.892Z,49.799999
2023-05-07T03:01:51.315Z,49.799999
2023-05-07T03:02:59.794Z,50.900002
2023-05-07T03:04:08.140Z,50.900002
2023-05-07T03:05:16.433Z,50.900002
2023-05-07T03:06:24.987Z,47.099998
2023-05-07T03:07:33.298Z,47.099998
2023-05-07T03:08:41.646Z,47.099998
2023-05-07T03:09:50.187Z,51.400002
2023-05-07T03:10:58.691Z,51.400002
2023-05-07T03:12:06.862Z,51.400002
2023-05-07T03:13:15.424Z,52.900002
2023-05-07T03:14:23.729Z,52.900002
2023-05-07T03:15:32.082Z,52.900002
2023-05-07T03:16:40.625Z,52.799999
2023-05-07T03:17:48.972Z,52.799999
2023-05-07T03:18:57.276Z,52.799999
2023-05-07T03:20:05.849Z,50.200001
2023-05-07T03:21:14.151Z,50.200001
2023-05-07T03:22:22.489Z,50.200001
2023-05-07T03:23:31.026Z,53.799999
2023-05-07T03:24:39.379Z,53.799999
2023-05-07T03:25:47.681Z,53.799999
2023-05-07T03:26:56.373Z,51.400002
2023-05-07T03:28:04.589Z,51.400002
2023-05-07T03:29:12.908Z,51.400002
2023-05-07T03:30:21.449Z,55.400002
2023-05-07T03:31:29.829Z,55.400002
2023-05-07T03:32:38.124Z,55.400002
2023-05-07T03:33:46.617Z,56.299999
2023-05-07T03:34:54.944Z,56.299999
2023-05-07T03:36:03.301Z,56.299999
2023-05-07T03:37:11.848Z,55.5
2023-05-07T03:38:20.168Z,55.5
2023-05-07T03:39:28.507Z,55.5
2023-05-07T03:40:37.076Z,51.700001
2023-05-07T03:41:45.383Z,51.700001
2023-05-07T03:42:53.847Z,51.700001
2023-05-07T03:44:02.269Z,52.400002
2023-05-07T03:45:10.595Z,52.400002
2023-05-07T03:46:18.948Z,52.400002
2023-05-07T03:47:27.456Z,52.200001
2023-05-07T03:48:35.753Z,52.200001
2023-05-07T03:49:44.111Z,52.200001
2023-05-07T03:50:52.645Z,53.299999
2023-05-07T03:52:00.969Z,53.299999
2023-05-07T03:53:09.318Z,53.299999
2023-05-07T03:54:17.827Z,53.700001
2023-05-07T03:55:26.167Z,53.700001
2023-05-07T03:56:34.493Z,53.700001
2023-05-07T03:57:43.023Z,58.200001
2023-05-07T03:58:51.380Z,58.200001
2023-05-07T03:59:59.694Z,58.200001
2023-05-07T04:01:08.236Z,55.700001
2023-05-07T04:02:16.591Z,55.700001
2023-05-07T04:03:24.920Z,55.700001
2023-05-07T04:04:33.387Z,52.700001
2023-05-07T04:05:41.723Z,52.700001
2023-05-07T04:06:50.048Z,52.700001
2023-05-07T04:07:58.576Z,55.099998
2023-05-07T04:09:06.904Z,55.099998
2023-05-07T04:10:15.246Z,55.099998
2023-05-07T04:11:23.775Z,50.799999
2023-05-07T04:12:32.094Z,50.799999
2023-05-07T04:13:40.425Z,50.799999
2023-05-07T04:14:49.068Z,51.900002
2023-05-07T04:15:57.285Z,51.900002
2023-05-07T04:17:05.596Z,51.900002
2023-05-07T04:18:14.132Z,48.700001
2023-05-07T04:19:22.447Z,48.700001
2023-05-07T04:20:30.801Z,48.700001
2023-05-07T04:21:39.324Z,48.900002
2023-05-07T04:22:47.672Z,48.900002
2023-05-07T04:23:56.017Z,48.900002
2023-05-07T04:25:04.552Z,49.299999
2023-05-07T04:26:12.895Z,49.299999
2023-05-07T04:27:21.224Z,49.299999
2023-05-07T04:28:29.763Z,45.400002
2023-05-07T04:29:38.093Z,45.400002
2023-05-07T04:30:46.556Z,45.400002
2023-05-07T04:31:54.989Z,46.299999
2023-05-07T04:33:03.321Z,46.299999
2023-05-07T04:34:11.612Z,46.299999
2023-05-07T04:35:20.154Z,47.299999
2023-05-07T04:36:28.689Z,47.299999
2023-05-07T04:37:36.804Z,47.299999
2023-05-07T04:38:45.330Z,46.400002
2023-05-07T04:39:53.667Z,46.400002
2023-05-07T04:41:02.019Z,46.400002
2023-05-07T04:42:10.537Z,48.700001
2023-05-07T04:43:18.876Z,48.700001
2023-05-07T04:44:27.166Z,48.700001
2023-05-07T04:45:35.719Z,46.599998
2023-05-07T04:46:44.126Z,46.599998
2023-05-07T04:47:52.427Z,46.599998
2023-05-07T04:49:00.929Z,45.200001
2023-05-07T04:50:09.433Z,45.200001
2023-05-07T04:51:17.584Z,45.200001
2023-05-07T04:52:27.374Z,48.5
2023-05-07T04:53:34.464Z,48.5
2023-05-07T04:54:42.789Z,48.5
2023-05-07T04:55:51.309Z,45.400002
2023-05-07T04:56:59.663Z,45.400002
2023-05-07T04:58:07.964Z,45.400002
2023-05-07T04:59:16.475Z,46
2023-05-07T05:00:24.814Z,46
2023-05-07T05:01:33.205Z,46
2023-05-07T05:02:41.922Z,49.299999
2023-05-07T05:03:50.100Z,49.299999
2023-05-07T05:04:58.358Z,49.299999
2023-05-07T05:06:06.881Z,47
2023-05-07T05:07:15.193Z,47
2023-05-07T05:08:23.534Z,47
2023-05-07T05:09:32.057Z,45.700001
2023-05-07T05:10:40.391Z,45.700001
2023-05-07T05:11:48.710Z,45.700001
2023-05-07T05:12:57.276Z,43.200001
2023-05-07T05:14:05.560Z,43.200001
2023-05-07T05:15:13.884Z,43.200001
2023-05-07T05:16:22.455Z,47.700001
2023-05-07T05:17:30.744Z,47.700001
2023-05-07T05:18:39.208Z,47.700001
2023-05-07T05:19:47.579Z,55.400002
2023-05-07T05:20:55.929Z,55.400002
2023-05-07T05:22:04.243Z,55.400002
2023-05-07T05:23:12.759Z,46.599998
2023-05-07T05:24:21.108Z,46.599998
2023-05-07T05:25:29.411Z,46.599998
2023-05-07T05:26:37.932Z,46.099998
2023-05-07T05:27:46.267Z,46.099998
2023-05-07T05:28:54.596Z,46.099998
2023-05-07T05:30:03.117Z,52.200001
2023-05-07T05:31:11.454Z,52.200001
2023-05-07T05:32:19.771Z,52.200001
2023-05-07T05:33:28.292Z,48.400002
2023-05-07T05:34:36.729Z,48.400002
2023-05-07T05:35:44.942Z,48.400002
2023-05-07T05:36:53.460Z,48.299999
2023-05-07T05:38:01.793Z,48.299999
2023-05-07T05:39:10.125Z,48.299999
2023-05-07T05:40:18.648Z,51.700001
2023-05-07T05:41:26.985Z,51.700001
2023-05-07T05:42:35.310Z,51.700001
2023-05-07T05:43:43.849Z,48.700001
2023-05-07T05:44:52.166Z,48.700001
2023-05-07T05:46:00.528Z,48.700001
2023-05-07T05:47:09.032Z,62.900002
2023-05-07T05:48:17.455Z,62.900002
2023-05-07T05:49:25.713Z,62.900002
2023-05-07T05:50:34.340Z,54.799999
2023-05-07T05:51:42.602Z,54.799999
2023-05-07T05:52:50.933Z,54.799999
2023-05-07T05:53:59.492Z,52.200001
2023-05-07T05:55:07.830Z,52.200001
2023-05-07T05:56:16.192Z,52.200001
2023-05-07T05:57:26.036Z,62
2023-05-07T05:58:33.028Z,62
2023-05-07T05:59:41.340Z,62
2023-05-07T06:00:49.875Z,51.799999
2023-05-07T06:01:58.200Z,51.799999
2023-05-07T06:03:06.605Z,51.799999
2023-05-07T06:04:15.051Z,43.799999
2023-05-07T06:05:23.472Z,43.799999
2023-05-07T06:06:31.947Z,43.799999
2023-05-07T06:07:40.267Z,47
2023-05-07T06:08:48.612Z,47
2023-05-07T06:09:56.963Z,47
2023-05-07T06:11:05.481Z,73.599998
2023-05-07T06:12:13.822Z,73.599998
2023-05-07T06:13:22.225Z,73.599998
2023-05-07T06:14:30.681Z,60.5
2023-05-07T06:15:38.993Z,60.5
2023-05-07T06:16:47.416Z,60.5
2023-05-07T06:17:55.887Z,52.299999
2023-05-07T06:19:04.180Z,52.299999
2023-05-07T06:20:12.738Z,52.299999
2023-05-07T06:21:21.067Z,52.299999
2023-05-07T06:22:29.414Z,52.299999
2023-05-07T06:23:37.731Z,52.299999
2023-05-07T06:24:46.256Z,45.299999
2023-05-07T06:25:54.579Z,45.299999
2023-05-07T06:27:02.908Z,45.299999
2023-05-07T06:28:11.424Z,44.700001
2023-05-07T06:29:19.733Z,44.700001
2023-05-07T06:30:28.076Z,44.700001
2023-05-07T06:31:36.665Z,44.099998
2023-05-07T06:32:44.950Z,44.099998
2023-05-07T06:33:55.111Z,44.099998
2023-05-07T06:35:01.780Z,45.799999
2023-05-07T06:36:10.080Z,45.799999
2023-05-07T06:37:18.401Z,45.799999
2023-05-07T06:38:26.950Z,43
2023-05-07T06:39:35.247Z,43
2023-05-07T06:40:43.563Z,43
2023-05-07T06:41:52.087Z,43.200001
2023-05-07T06:43:00.414Z,43.200001
2023-05-07T06:44:09.727Z,43.200001
2023-05-07T06:45:17.249Z,42.700001
2023-05-07T06:46:25.604Z,42.700001
2023-05-07T06:47:33.898Z,42.700001
2023-05-07T06:48:42.407Z,42.200001
2023-05-07T06:49:50.729Z,42.200001
2023-05-07T06:50:59.042Z,42.200001
2023-05-07T06:52:07.547Z,39.200001
2023-05-07T06:53:15.860Z,39.200001
2023-05-07T06:54:24.523Z,39.200001
2023-05-07T06:55:32.704Z,38.099998
2023-05-07T06:56:41.018Z,38.099998
2023-05-07T06:57:49.317Z,38.099998
2023-05-07T06:58:57.830Z,35.099998
2023-05-07T07:00:06.134Z,35.099998
2023-05-07T07:01:14.468Z,35.099998
2023-05-07T07:02:23.003Z,40.5
2023-05-07T07:03:31.259Z,40.5
2023-05-07T07:04:39.954Z,40.5
2023-05-07T07:05:48.078Z,37.599998
2023-05-07T07:06:56.378Z,37.599998
2023-05-07T07:08:04.694Z,37.599998
2023-05-07T07:09:13.212Z,34.599998
2023-05-07T07:10:21.631Z,34.599998
2023-05-07T07:11:29.850Z,34.599998
2023-05-07T07:12:38.394Z,39.799999
2023-05-07T07:13:46.717Z,39.799999
2023-05-07T07:14:55.695Z,39.799999
2023-05-07T07:16:04.274Z,40.400002
2023-05-07T07:17:12.563Z,40.400002
2023-05-07T07:18:20.855Z,40.400002
2023-05-07T07:19:29.381Z,39.299999
2023-05-07T07:20:37.709Z,39.299999
2023-05-07T07:21:46.028Z,39.299999
2023-05-07T07:22:54.505Z,38.099998
2023-05-07T07:24:02.810Z,38.099998
2023-05-07T07:25:11.326Z,38.099998
2023-05-07T07:26:19.798Z,38.5
2023-05-07T07:27:27.993Z,38.5
2023-05-07T07:28:36.310Z,38.5
2023-05-07T07:29:44.869Z,36.5
2023-05-07T07:30:53.192Z,36.5
2023-05-07T07:32:01.612Z,36.5
2023-05-07T07:33:10.134Z,34.900002
2023-05-07T07:34:18.390Z,34.900002
2023-05-07T07:35:26.709Z,34.900002
2023-05-07T07:36:45.401Z,35.299999
2023-05-07T07:37:43.568Z,35.299999
2023-05-07T07:38:51.884Z,35.299999
2023-05-07T07:40:00.419Z,34.099998
2023-05-07T07:41:08.770Z,34.099998
2023-05-07T07:42:17.206Z,34.099998
2023-05-07T07:43:25.623Z,29.700001
2023-05-07T07:44:33.937Z,29.700001
2023-05-07T07:45:42.269Z,29.700001
2023-05-07T07:46:50.877Z,31.5
2023-05-07T07:47:59.147Z,31.5
2023-05-07T07:49:07.417Z,31.5
2023-05-07T07:50:22.158Z,27.4
2023-05-07T07:51:24.288Z,27.4
2023-05-07T07:52:32.674Z,27.4
2023-05-07T07:53:41.190Z,29
2023-05-07T07:54:49.504Z,29
2023-05-07T07:55:59.303Z,29
2023-05-07T07:57:06.480Z,27.5
2023-05-07T07:58:14.828Z,27.5
2023-05-07T07:59:23.106Z,27.5
2023-05-07T08:00:31.669Z,25.6
2023-05-07T08:01:40.025Z,25.6
2023-05-07T08:02:48.425Z,25.6
2023-05-07T08:03:56.926Z,24.5
2023-05-07T08:05:05.188Z,24.5
2023-05-07T08:06:15.213Z,24.5
2023-05-07T08:07:22.074Z,23
2023-05-07T08:08:30.435Z,23
2023-05-07T08:09:38.741Z,23
2023-05-07T08:10:47.311Z,24.4
2023-05-07T08:11:55.638Z,24.4
2023-05-07T08:13:03.975Z,24.4
2023-05-07T08:14:12.546Z,22.700001
2023-05-07T08:15:20.871Z,22.700001
2023-05-07T08:16:30.951Z,22.700001
2023-05-07T08:17:37.821Z,24.5
2023-05-07T08:18:46.092Z,24.5
2023-05-07T08:19:54.431Z,24.5
2023-05-07T08:21:03.016Z,21.799999
2023-05-07T08:22:11.352Z,21.799999
2023-05-07T08:23:19.686Z,21.799999
2023-05-07T08:24:28.219Z,23.700001
2023-05-07T08:25:36.566Z,23.700001
2023-05-07T08:26:44.890Z,23.700001
2023-05-07T08:27:53.413Z,23.299999
2023-05-07T08:29:01.756Z,23.299999
2023-05-07T08:30:10.380Z,23.299999
2023-05-07T08:31:18.672Z,23.700001
2023-05-07T08:32:27.068Z,23.700001
2023-05-07T08:33:35.261Z,23.700001
2023-05-07T08:34:43.793Z,22.1
2023-05-07T08:35:52.132Z,22.1
2023-05-07T08:37:00.462Z,22.1
2023-05-07T08:38:08.982Z,23.200001
2023-05-07T08:39:17.316Z,23.200001
2023-05-07T08:40:25.635Z,23.200001
2023-05-07T08:41:34.154Z,22.799999
2023-05-07T08:42:42.483Z,22.799999
2023-05-07T08:43:50.869Z,22.799999
2023-05-07T08:44:59.425Z,21.9
2023-05-07T08:46:10.136Z,21.9
2023-05-07T08:47:16.034Z,21.9
2023-05-07T08:48:24.548Z,21.700001
2023-05-07T08:49:32.853Z,21.700001
2023-05-07T08:50:41.167Z,21.700001
2023-05-07T08:51:49.672Z,22.6
2023-05-07T08:52:57.992Z,22.6
2023-05-07T08:54:06.291Z,22.6
2023-05-07T08:55:14.950Z,22.9
2023-05-07T08:56:23.155Z,22.9
2023-05-07T08:57:31.478Z,22.9
2023-05-07T08:58:39.990Z,24.6
2023-05-07T08:59:48.288Z,24.6
2023-05-07T09:00:56.625Z,24.6
2023-05-07T09:02:06.068Z,23.200001
2023-05-07T09:03:13.641Z,23.200001
2023-05-07T09:04:21.831Z,23.200001
2023-05-07T09:05:30.385Z,24.6
2023-05-07T09:06:38.723Z,24.6
2023-05-07T09:07:47.086Z,24.6
2023-05-07T09:08:55.607Z,21.9
2023-05-07T09:10:03.935Z,21.9
2023-05-07T09:11:12.271Z,21.9
2023-05-07T09:12:20.792Z,23.799999
2023-05-07T09:13:29.152Z,23.799999
2023-05-07T09:14:37.445Z,23.799999
2023-05-07T09:15:46.039Z,23.4
2023-05-07T09:16:54.348Z,23.4
2023-05-07T09:18:02.748Z,23.4
2023-05-07T09:19:11.224Z,20.1
2023-05-07T09:20:19.590Z,20.1
2023-05-07T09:21:27.925Z,20.1
2023-05-07T09:22:36.464Z,25.6
2023-05-07T09:23:44.818Z,25.6
2023-05-07T09:24:53.161Z,25.6
2023-05-07T09:26:01.692Z,20.799999
2023-05-07T09:27:10.035Z,20.799999
2023-05-07T09:28:18.353Z,20.799999
2023-05-07T09:29:26.920Z,20.6
2023-05-07T09:30:35.272Z,20.6
2023-05-07T09:31:43.691Z,20.6
2023-05-07T09:32:52.286Z,21.6
2023-05-07T09:34:00.631Z,21.6
2023-05-07T09:35:08.942Z,21.6
2023-05-07T09:36:17.441Z,20.5
2023-05-07T09:37:25.756Z,20.5
2023-05-07T09:38:34.085Z,20.5
2023-05-07T09:39:42.733Z,21.4
2023-05-07T09:40:51.031Z,21.4
2023-05-07T09:41:59.410Z,21.4
2023-05-07T09:43:07.960Z,21.700001
2023-05-07T09:44:16.315Z,21.700001
2023-05-07T09:45:24.684Z,21.700001
2023-05-07T09:46:33.205Z,23.799999
2023-05-07T09:47:41.579Z,23.799999
2023-05-07T09:48:49.899Z,23.799999
2023-05-07T09:49:58.636Z,23.299999
2023-05-07T09:51:06.809Z,23.299999
2023-05-07T09:52:15.217Z,23.299999
2023-05-07T09:53:23.761Z,22
2023-05-07T09:54:32.128Z,22
2023-05-07T09:55:40.417Z,22
2023-05-07T09:56:48.966Z,20.299999
2023-05-07T09:57:57.318Z,20.299999
2023-05-07T09:59:05.652Z,20.299999
2023-05-07T10:00:14.208Z,20.299999
2023-05-07T10:01:22.613Z,20.299999
2023-05-07T10:02:30.938Z,20.299999
2023-05-07T10:03:39.570Z,20.299999
2023-05-07T10:04:47.848Z,20.299999
2023-05-07T10:05:56.268Z,20.299999
2023-05-07T10:07:04.661Z,20.6
2023-05-07T10:08:13.014Z,20.6
2023-05-07T10:09:21.329Z,20.6
2023-05-07T10:10:29.902Z,20.9
2023-05-07T10:11:38.221Z,20.9
2023-05-07T10:12:46.636Z,20.9
2023-05-07T10:13:55.227Z,19.9
2023-05-07T10:15:03.597Z,19.9
2023-05-07T10:16:11.936Z,19.9
2023-05-07T10:17:20.536Z,19.299999
2023-05-07T10:18:28.855Z,19.299999
2023-05-07T10:19:37.184Z,19.299999
2023-05-07T10:20:45.731Z,20
2023-05-07T10:21:54.163Z,20
2023-05-07T10:23:02.403Z,20
2023-05-07T10:24:10.940Z,19.1
2023-05-07T10:25:19.275Z,19.1
2023-05-07T10:26:27.644Z,19.1
2023-05-07T10:27:36.221Z,19.700001
2023-05-07T10:28:44.548Z,19.700001
2023-05-07T10:29:52.899Z,19.700001
2023-05-07T10:31:01.466Z,21.4
2023-05-07T10:32:09.740Z,21.4
2023-05-07T10:33:18.150Z,21.4
2023-05-07T10:34:26.617Z,18.700001
2023-05-07T10:35:35.002Z,18.700001
2023-05-07T10:36:43.342Z,18.700001
2023-05-07T10:37:52.134Z,20
2023-05-07T10:39:00.314Z,20
2023-05-07T10:40:08.658Z,20
2023-05-07T10:41:17.270Z,17.5
2023-05-07T10:42:25.592Z,17.5
2023-05-07T10:43:33.927Z,17.5
2023-05-07T10:44:42.542Z,21.700001
2023-05-07T10:45:50.908Z,21.700001
2023-05-07T10:46:59.238Z,21.700001
2023-05-07T10:48:17.222Z,19.6
2023-05-07T10:49:16.094Z,19.6
2023-05-07T10:50:24.592Z,19.6
2023-05-07T10:51:32.979Z,19.700001
2023-05-07T10:52:41.348Z,19.700001
2023-05-07T10:53:49.790Z,19.700001
2023-05-07T10:54:58.213Z,19.299999
2023-05-07T10:56:06.537Z,19.299999
2023-05-07T10:57:14.881Z,19.299999
2023-05-07T10:58:30.760Z,18.5
2023-05-07T10:59:31.865Z,18.5
2023-05-07T11:00:40.186Z,18.5
2023-05-07T11:01:48.752Z,19.200001
2023-05-07T11:02:57.069Z,19.200001
2023-05-07T11:04:05.403Z,19.200001
2023-05-07T11:05:14.290Z,19.1
2023-05-07T11:06:22.319Z,19.1
2023-05-07T11:07:30.665Z,19.1
2023-05-07T11:08:39.216Z,19
2023-05-07T11:09:47.685Z,19
2023-05-07T11:10:55.909Z,19
2023-05-07T11:12:04.431Z,18.4
2023-05-07T11:13:12.768Z,18.4
2023-05-07T11:14:21.096Z,18.4
2023-05-07T11:15:29.649Z,17.5
2023-05-07T11:16:38.191Z,17.5
2023-05-07T11:17:46.337Z,17.5
2023-05-07T11:18:54.860Z,17.6
2023-05-07T11:20:03.197Z,17.6
2023-05-07T11:21:11.560Z,17.6
2023-05-07T11:22:20.169Z,17.9
2023-05-07T11:23:28.457Z,17.9
2023-05-07T11:24:36.807Z,17.9
2023-05-07T11:25:45.462Z,17.1
2023-05-07T11:26:53.687Z,17.1
2023-05-07T11:28:02.024Z,17.1
2023-05-07T11:29:10.854Z,15.1
2023-05-07T11:30:19.194Z,15.1
2023-05-07T11:31:27.554Z,15.1
2023-05-07T11:32:36.161Z,16.5
2023-05-07T11:33:45.275Z,16.5
2023-05-07T11:34:53.599Z,16.5
2023-05-07T11:36:02.157Z,15.3
2023-05-07T11:37:10.497Z,15.3
2023-05-07T11:38:18.847Z,15.3
2023-05-07T11:39:27.388Z,15.8
2023-05-07T11:40:35.722Z,15.8
2023-05-07T11:41:44.206Z,15.8
2023-05-07T11:42:52.574Z,14.7
2023-05-07T11:44:00.930Z,14.7
2023-05-07T11:45:09.423Z,14.7
2023-05-07T11:46:17.891Z,14.3
2023-05-07T11:47:26.265Z,14.3
2023-05-07T11:48:34.577Z,14.3
2023-05-07T11:49:43.116Z,14.3
2023-05-07T11:50:51.473Z,14.3
2023-05-07T11:51:59.797Z,14.3
2023-05-07T11:53:08.374Z,14
2023-05-07T11:54:16.697Z,14
2023-05-07T11:55:25.029Z,14
2023-05-07T11:56:33.552Z,13.6
2023-05-07T11:57:42.011Z,13.6
2023-05-07T11:58:50.257Z,13.6
2023-05-07T11:59:58.776Z,13
2023-05-07T12:01:07.150Z,13
2023-05-07T12:02:15.533Z,13
2023-05-07T12:03:24.083Z,14.7
2023-05-07T12:04:32.451Z,14.7
2023-05-07T12:05:40.704Z,14.7
2023-05-07T12:06:49.237Z,14.6
2023-05-07T12:07:57.573Z,14.6
2023-05-07T12:09:05.919Z,14.6
2023-05-07T12:10:14.471Z,14.5
2023-05-07T12:11:22.806Z,14.5
2023-05-07T12:12:31.118Z,14.5
2023-05-07T12:13:39.706Z,13.9
2023-05-07T12:14:48.019Z,13.9
2023-05-07T12:15:56.364Z,13.9
2023-05-07T12:17:04.958Z,13.1
2023-05-07T12:18:13.278Z,13.1
2023-05-07T12:19:21.557Z,13.1
2023-05-07T12:20:30.088Z,14.1
2023-05-07T12:21:38.429Z,14.1
2023-05-07T12:22:46.758Z,14.1
2023-05-07T12:23:55.299Z,11.6
2023-05-07T12:25:03.676Z,11.6
2023-05-07T12:26:11.972Z,11.6
2023-05-07T12:27:20.501Z,11.9
2023-05-07T12:28:28.831Z,11.9
2023-05-07T12:29:37.205Z,11.9
2023-05-07T12:30:45.722Z,13.6
2023-05-07T12:31:54.082Z,13.6
2023-05-07T12:33:02.421Z,13.6
2023-05-07T12:34:10.921Z,12.1
2023-05-07T12:35:19.263Z,12.1
2023-05-07T12:36:27.616Z,12.1
2023-05-07T12:37:36.171Z,13.1
2023-05-07T12:38:44.519Z,13.1
2023-05-07T12:39:52.862Z,13.1
2023-05-07T12:41:01.412Z,12.4
2023-05-07T12:42:09.745Z,12.4
2023-05-07T12:43:18.105Z,12.4
2023-05-07T12:44:26.747Z,13.7
2023-05-07T12:45:35.097Z,13.7
2023-05-07T12:46:43.517Z,13.7
2023-05-07T12:47:51.987Z,13.6
2023-05-07T12:49:00.289Z,13.6
2023-05-07T12:50:08.659Z,13.6
2023-05-07T12:51:17.260Z,13.8
2023-05-07T12:52:25.603Z,13.8
2023-05-07T12:53:33.928Z,13.8
2023-05-07T12:54:42.518Z,13.2
2023-05-07T12:55:50.851Z,13.2
2023-05-07T12:56:59.191Z,13.2
2023-05-07T12:58:07.726Z,14.3
2023-05-07T12:59:16.073Z,14.3
2023-05-07T13:00:24.436Z,14.3
2023-05-07T13:01:33.082Z,14.6
2023-05-07T13:02:41.434Z,14.6
2023-05-07T13:03:49.858Z,14.6
2023-05-07T13:04:58.341Z,13.1
2023-05-07T13:06:06.685Z,13.1
2023-05-07T13:07:15.020Z,13.1
2023-05-07T13:08:23.555Z,14.4
2023-05-07T13:09:31.907Z,14.4
2023-05-07T13:10:40.229Z,14.4
2023-05-07T13:11:48.783Z,13.9
2023-05-07T13:12:57.211Z,13.9
2023-05-07T13:14:05.474Z,13.9
2023-05-07T13:15:14.159Z,14.4
2023-05-07T13:16:22.588Z,14.4
2023-05-07T13:17:30.774Z,14.4
2023-05-07T13:18:39.391Z,16.700001
2023-05-07T13:19:47.635Z,16.700001
2023-05-07T13:20:55.990Z,16.700001
2023-05-07T13:22:04.542Z,21.6
2023-05-07T13:23:12.879Z,21.6
2023-05-07T13:24:21.293Z,21.6
2023-05-07T13:25:29.868Z,13.5
2023-05-07T13:26:38.192Z,13.5
2023-05-07T13:27:46.758Z,13.5
2023-05-07T13:28:55.052Z,12
2023-05-07T13:30:03.419Z,12
2023-05-07T13:31:11.753Z,12
2023-05-07T13:32:20.285Z,16.200001
2023-05-07T13:33:28.674Z,16.200001
2023-05-07T13:34:36.958Z,16.200001
2023-05-07T13:35:45.485Z,11.8
2023-05-07T13:36:53.818Z,11.8
2023-05-07T13:38:02.173Z,11.8
2023-05-07T13:39:10.711Z,10.6
2023-05-07T13:40:19.061Z,10.6
2023-05-07T13:41:27.385Z,10.6
2023-05-07T13:42:35.932Z,17.5
2023-05-07T13:43:44.311Z,17.5
2023-05-07T13:44:52.667Z,17.5
2023-05-07T13:46:01.268Z,11.3
2023-05-07T13:47:09.617Z,11.3
2023-05-07T13:48:17.996Z,11.3
2023-05-07T13:49:26.549Z,10.5
2023-05-07T13:50:34.875Z,10.5
2023-05-07T13:51:43.202Z,10.5
2023-05-07T13:52:51.788Z,9.6
2023-05-07T13:54:00.064Z,9.6
2023-05-07T13:55:08.404Z,9.6
2023-05-07T13:56:16.949Z,9.9
2023-05-07T13:57:25.291Z,9.9